Time;durP1;ratioP1;P1;durP2;ratioP2;P2;SDS_P1;SDS_P2;PMS_P1;PMS_P2;Temp;Humidity;BMP_temperature;BMP_pressure;BME280_temperature;BME280_humidity;BME280_pressure;Samples;Min_cycle;Max_cycle;Signal;HPM_P1;HPM_P2
2022/07/25 00:00:44;;;;;;;9.15;3.45;;;;;;;;;;5054062;28;20039;-66
2022/07/25 00:03:10;;;;;;;8.13;3.28;;;;;;;;;;5036765;28;21185;-65
2022/07/25 00:05:36;;;;;;;8.13;3.10;;;;;;;;;;5036076;28;20032;-66
2022/07/25 00:08:03;;;;;;;8.77;3.42;;;;;;;;;;5055472;28;20084;-66
2022/07/25 00:10:29;;;;;;;8.68;3.60;;;;;;;;;;5055257;28;20024;-66
2022/07/25 00:12:55;;;;;;;10.80;3.35;;;;;;;;;;5057883;28;20062;-66
2022/07/25 00:15:21;;;;;;;9.75;3.75;;;;;;;;;;5059074;28;20570;-66
2022/07/25 00:17:47;;;;;;;8.55;3.58;;;;;;;;;;5037600;28;20072;-66
2022/07/25 00:20:13;;;;;;;8.25;3.80;;;;;;;;;;5053031;28;20412;-65
2022/07/25 00:22:39;;;;;;;8.65;3.60;;;;;;;;;;5059916;28;20088;-65
2022/07/25 00:25:06;;;;;;;8.55;3.50;;;;;;;;;;5052968;28;20734;-65
2022/07/25 00:27:32;;;;;;;9.00;3.70;;;;;;;;;;5059271;28;20434;-66
2022/07/25 00:29:58;;;;;;;9.32;3.20;;;;;;;;;;5053128;28;20036;-65
2022/07/25 00:32:24;;;;;;;7.80;3.08;;;;;;;;;;5057892;28;20058;-65
2022/07/25 00:34:50;;;;;;;11.82;3.30;;;;;;;;;;5052184;28;20032;-66
2022/07/25 00:37:16;;;;;;;8.13;3.25;;;;;;;;;;5038441;28;20043;-66
2022/07/25 00:39:43;;;;;;;7.10;3.00;;;;;;;;;;5055417;28;20024;-65
2022/07/25 00:42:09;;;;;;;7.22;3.08;;;;;;;;;;5055640;28;20031;-66
2022/07/25 00:44:35;;;;;;;8.30;2.80;;;;;;;;;;5056071;28;20036;-65
2022/07/25 00:47:01;;;;;;;8.68;3.35;;;;;;;;;;5049682;28;20070;-65
2022/07/25 00:49:27;;;;;;;9.00;3.03;;;;;;;;;;5055056;28;20074;-65
2022/07/25 00:51:54;;;;;;;8.23;3.28;;;;;;;;;;5026828;28;20146;-65
2022/07/25 00:54:21;;;;;;;8.55;3.17;;;;;;;;;;5009448;28;20044;-65
2022/07/25 00:56:48;;;;;;;6.38;2.88;;;;;;;;;;5012233;28;20391;-65
2022/07/25 00:59:15;;;;;;;9.60;3.47;;;;;;;;;;5010789;28;20022;-65
2022/07/25 01:01:41;;;;;;;7.78;3.20;;;;;;;;;;5013374;28;20147;-66
2022/07/25 01:04:08;;;;;;;8.60;3.22;;;;;;;;;;5009390;28;20572;-65
2022/07/25 01:06:34;;;;;;;8.70;3.60;;;;;;;;;;5010445;28;20033;-66
2022/07/25 01:09:01;;;;;;;8.82;3.67;;;;;;;;;;5011243;28;20033;-66
2022/07/25 01:11:27;;;;;;;10.45;3.75;;;;;;;;;;5013724;28;20026;-65
2022/07/25 01:13:53;;;;;;;8.77;3.72;;;;;;;;;;5009926;28;20064;-66
2022/07/25 01:16:19;;;;;;;9.02;3.90;;;;;;;;;;5012773;28;20030;-66
2022/07/25 01:18:45;;;;;;;8.98;3.70;;;;;;;;;;5014637;28;20542;-65
2022/07/25 01:21:13;;;;;;;7.57;3.47;;;;;;;;;;5008105;28;20040;-65
2022/07/25 01:23:39;;;;;;;9.00;3.42;;;;;;;;;;5015791;28;20096;-65
2022/07/25 01:26:05;;;;;;;11.35;3.67;;;;;;;;;;5005931;28;20038;-65
2022/07/25 01:28:31;;;;;;;9.88;3.40;;;;;;;;;;5012081;28;20115;-65
2022/07/25 01:30:57;;;;;;;7.97;3.30;;;;;;;;;;5007785;28;20111;-66
2022/07/25 01:33:23;;;;;;;9.57;3.58;;;;;;;;;;5009630;28;20036;-65
2022/07/25 01:35:50;;;;;;;8.98;3.30;;;;;;;;;;5012675;28;20041;-66
2022/07/25 01:38:16;;;;;;;8.35;3.45;;;;;;;;;;5015490;28;20366;-65
2022/07/25 01:40:43;;;;;;;9.48;3.42;;;;;;;;;;5012085;28;20505;-66
2022/07/25 01:43:09;;;;;;;7.93;3.13;;;;;;;;;;5013599;28;20030;-65
2022/07/25 01:45:35;;;;;;;6.47;3.00;;;;;;;;;;5014512;28;20024;-66
2022/07/25 01:48:02;;;;;;;8.23;3.47;;;;;;;;;;5009877;28;20053;-65
2022/07/25 01:50:28;;;;;;;8.95;3.42;;;;;;;;;;5023040;28;20137;-65
2022/07/25 01:52:54;;;;;;;8.73;3.65;;;;;;;;;;5050306;28;20807;-66
2022/07/25 01:55:20;;;;;;;8.00;3.50;;;;;;;;;;5057158;28;20032;-65
2022/07/25 01:57:46;;;;;;;9.38;3.75;;;;;;;;;;5043204;28;20036;-65
2022/07/25 02:00:13;;;;;;;9.80;3.45;;;;;;;;;;5052116;28;20024;-65
2022/07/25 02:02:39;;;;;;;10.18;3.55;;;;;;;;;;5038590;28;20150;-65
2022/07/25 02:05:06;;;;;;;9.88;3.80;;;;;;;;;;5055530;28;20058;-65
2022/07/25 02:07:32;;;;;;;7.68;3.50;;;;;;;;;;5058917;28;20448;-65
2022/07/25 02:09:59;;;;;;;7.65;3.63;;;;;;;;;;5050166;28;20143;-66
2022/07/25 02:12:25;;;;;;;8.57;3.80;;;;;;;;;;5038466;28;20102;-66
2022/07/25 02:14:51;;;;;;;8.77;3.47;;;;;;;;;;5054745;28;20490;-65
2022/07/25 02:17:17;;;;;;;10.80;3.83;;;;;;;;;;5039479;28;20024;-66
2022/07/25 02:19:43;;;;;;;6.75;3.60;;;;;;;;;;5057205;28;20034;-65
2022/07/25 02:22:09;;;;;;;8.32;3.67;;;;;;;;;;5050554;28;20381;-65
2022/07/25 02:24:36;;;;;;;10.18;3.80;;;;;;;;;;5054762;28;20052;-65
2022/07/25 02:27:02;;;;;;;8.15;3.72;;;;;;;;;;5053535;28;20468;-65
2022/07/25 02:29:28;;;;;;;8.85;3.67;;;;;;;;;;5038099;28;20024;-65
2022/07/25 02:31:55;;;;;;;9.98;3.35;;;;;;;;;;5052707;28;20113;-65
2022/07/25 02:34:21;;;;;;;10.07;3.67;;;;;;;;;;5052927;28;20063;-65
2022/07/25 02:36:47;;;;;;;7.13;3.40;;;;;;;;;;5036259;28;20028;-66
2022/07/25 02:39:13;;;;;;;8.38;3.42;;;;;;;;;;5029912;28;20067;-66
2022/07/25 02:41:39;;;;;;;9.10;3.40;;;;;;;;;;5053231;28;20061;-65
2022/07/25 02:44:05;;;;;;;9.05;3.47;;;;;;;;;;5048926;28;20021;-65
2022/07/25 02:46:32;;;;;;;10.75;3.50;;;;;;;;;;5053688;28;20040;-65
2022/07/25 02:48:58;;;;;;;6.60;3.25;;;;;;;;;;5050517;28;20123;-65
2022/07/25 02:51:25;;;;;;;9.00;3.28;;;;;;;;;;5052025;28;20052;-65
2022/07/25 02:53:51;;;;;;;9.27;3.60;;;;;;;;;;5052342;28;20151;-66
2022/07/25 02:56:17;;;;;;;9.77;3.80;;;;;;;;;;5053621;28;20033;-66
2022/07/25 02:58:45;;;;;;;9.15;3.80;;;;;;;;;;5050829;28;20055;-67
2022/07/25 03:01:11;;;;;;;8.75;3.70;;;;;;;;;;5049371;28;20070;-66
2022/07/25 03:03:37;;;;;;;7.90;3.70;;;;;;;;;;5052870;28;20109;-65
2022/07/25 03:06:04;;;;;;;7.57;3.38;;;;;;;;;;5051194;28;20020;-65
2022/07/25 03:08:30;;;;;;;9.10;3.55;;;;;;;;;;5037524;28;20043;-66
2022/07/25 03:10:56;;;;;;;7.38;3.20;;;;;;;;;;5052760;28;20119;-66
2022/07/25 03:13:22;;;;;;;9.07;3.40;;;;;;;;;;5036673;28;20645;-66
2022/07/25 03:15:48;;;;;;;7.68;3.63;;;;;;;;;;5055459;28;20547;-65
2022/07/25 03:18:14;;;;;;;8.60;3.92;;;;;;;;;;5048103;28;20954;-65
2022/07/25 03:20:40;;;;;;;8.18;3.60;;;;;;;;;;5039824;28;20530;-67
2022/07/25 03:23:07;;;;;;;8.88;3.85;;;;;;;;;;5056525;28;20040;-65
2022/07/25 03:25:33;;;;;;;8.82;3.70;;;;;;;;;;5057264;28;20548;-65
2022/07/25 03:27:59;;;;;;;8.07;3.70;;;;;;;;;;5055568;28;20036;-65
2022/07/25 03:30:25;;;;;;;10.30;3.90;;;;;;;;;;5040419;28;20008;-66
2022/07/25 03:32:52;;;;;;;9.80;3.95;;;;;;;;;;5055428;28;20433;-65
2022/07/25 03:35:18;;;;;;;7.38;3.60;;;;;;;;;;5057586;28;20055;-65
2022/07/25 03:37:44;;;;;;;8.18;3.80;;;;;;;;;;5059771;28;20174;-66
2022/07/25 03:40:11;;;;;;;8.15;3.65;;;;;;;;;;5035026;28;20487;-65
2022/07/25 03:42:37;;;;;;;9.68;3.70;;;;;;;;;;5058482;28;20682;-68
2022/07/25 03:45:03;;;;;;;9.38;3.90;;;;;;;;;;5051609;28;20023;-65
2022/07/25 03:47:29;;;;;;;8.48;3.88;;;;;;;;;;5053093;28;20029;-65
2022/07/25 03:49:55;;;;;;;9.32;4.07;;;;;;;;;;5052944;28;20496;-66
2022/07/25 03:52:22;;;;;;;10.63;3.63;;;;;;;;;;5055757;28;20460;-65
2022/07/25 03:54:48;;;;;;;9.88;3.95;;;;;;;;;;5055566;28;20036;-66
2022/07/25 03:57:14;;;;;;;11.40;3.88;;;;;;;;;;5053365;28;20039;-65
2022/07/25 03:59:40;;;;;;;9.98;3.97;;;;;;;;;;5056583;28;20035;-65
2022/07/25 04:02:06;;;;;;;8.80;3.67;;;;;;;;;;5035118;28;20029;-65
2022/07/25 04:04:32;;;;;;;9.23;3.55;;;;;;;;;;5050759;28;21141;-65
2022/07/25 04:06:58;;;;;;;9.95;4.03;;;;;;;;;;5049590;28;20116;-66
2022/07/25 04:09:24;;;;;;;9.10;3.72;;;;;;;;;;5053606;28;20402;-67
2022/07/25 04:11:50;;;;;;;9.32;3.97;;;;;;;;;;5035643;28;20033;-66
2022/07/25 04:14:16;;;;;;;8.27;4.65;;;;;;;;;;5052107;28;20961;-66
2022/07/25 04:16:42;;;;;;;11.63;4.93;;;;;;;;;;5034638;28;20029;-66
2022/07/25 04:19:09;;;;;;;11.07;4.88;;;;;;;;;;5050878;28;20540;-65
2022/07/25 04:21:35;;;;;;;13.07;4.60;;;;;;;;;;5051908;28;20025;-65
2022/07/25 04:24:01;;;;;;;9.77;4.15;;;;;;;;;;5037992;28;20032;-65
2022/07/25 04:26:27;;;;;;;9.98;4.50;;;;;;;;;;5055423;28;20023;-65
2022/07/25 04:28:53;;;;;;;11.13;4.45;;;;;;;;;;5049494;28;20039;-66
2022/07/25 04:31:20;;;;;;;10.02;4.22;;;;;;;;;;5054728;28;20036;-65
2022/07/25 04:33:46;;;;;;;9.82;4.03;;;;;;;;;;5053097;28;20316;-65
2022/07/25 04:36:12;;;;;;;8.73;4.28;;;;;;;;;;5052032;28;20481;-65
2022/07/25 04:38:38;;;;;;;16.52;4.80;;;;;;;;;;5051860;28;20071;-65
2022/07/25 04:41:04;;;;;;;14.40;5.18;;;;;;;;;;5048924;28;20028;-65
2022/07/25 04:43:30;;;;;;;13.48;5.15;;;;;;;;;;5031101;28;20416;-65
2022/07/25 04:46:03;;;;;;;12.90;4.80;;;;;;;;;;5059917;28;20064;-65
2022/07/25 04:50:57;;;;;;;10.18;5.00;;;;;;;;;;5045795;28;20049;-65
2022/07/25 04:53:23;;;;;;;16.63;5.30;;;;;;;;;;5041899;28;20027;-65
2022/07/25 04:55:49;;;;;;;10.48;4.72;;;;;;;;;;5042735;28;20046;-65
2022/07/25 04:58:16;;;;;;;13.00;5.20;;;;;;;;;;5044687;28;20055;-65
2022/07/25 05:00:42;;;;;;;10.20;4.72;;;;;;;;;;5044435;28;20044;-65
2022/07/25 05:03:08;;;;;;;15.02;4.88;;;;;;;;;;5040038;28;20025;-65
2022/07/25 05:05:34;;;;;;;10.02;4.65;;;;;;;;;;5046164;28;20060;-66
2022/07/25 05:08:00;;;;;;;11.13;4.85;;;;;;;;;;5042048;28;20021;-66
2022/07/25 05:10:27;;;;;;;12.43;5.05;;;;;;;;;;5044222;28;20044;-66
2022/07/25 05:12:53;;;;;;;14.05;5.13;;;;;;;;;;5041732;28;20053;-66
2022/07/25 05:15:19;;;;;;;17.60;5.38;;;;;;;;;;5046196;28;20435;-65
2022/07/25 05:17:46;;;;;;;14.40;5.25;;;;;;;;;;5045972;28;20037;-65
2022/07/25 05:20:12;;;;;;;13.43;5.13;;;;;;;;;;5041033;28;20035;-65
2022/07/25 05:22:38;;;;;;;14.43;5.28;;;;;;;;;;5044149;28;20422;-65
2022/07/25 05:25:08;;;;;;;12.32;6.53;;;;;;;;;;5039690;28;20024;-65
2022/07/25 05:27:35;;;;;;;13.85;8.07;;;;;;;;;;5045642;28;20528;-65
2022/07/25 05:30:01;;;;;;;12.43;6.13;;;;;;;;;;5043081;28;20465;-65
2022/07/25 05:32:27;;;;;;;13.25;8.35;;;;;;;;;;5047419;28;20028;-66
2022/07/25 05:34:53;;;;;;;14.10;9.38;;;;;;;;;;5041298;28;20714;-66
2022/07/25 05:37:19;;;;;;;12.80;6.63;;;;;;;;;;5044794;28;20411;-66
2022/07/25 05:39:45;;;;;;;14.98;6.50;;;;;;;;;;5040795;28;20066;-66
2022/07/25 05:42:12;;;;;;;14.50;5.55;;;;;;;;;;5037560;28;20032;-67
2022/07/25 05:44:38;;;;;;;12.50;6.22;;;;;;;;;;5045851;28;20028;-65
2022/07/25 05:47:04;;;;;;;16.58;9.25;;;;;;;;;;5032846;28;20033;-64
2022/07/25 05:49:30;;;;;;;13.52;6.38;;;;;;;;;;5026724;28;20048;-66
2022/07/25 05:51:56;;;;;;;12.10;6.32;;;;;;;;;;5022968;28;20392;-66
2022/07/25 05:54:22;;;;;;;12.82;6.13;;;;;;;;;;5024776;28;20071;-66
2022/07/25 05:56:48;;;;;;;13.00;5.20;;;;;;;;;;5025948;28;20511;-67
2022/07/25 05:59:15;;;;;;;14.20;6.18;;;;;;;;;;5023541;28;20135;-66
2022/07/25 06:01:41;;;;;;;13.70;5.20;;;;;;;;;;5025430;28;20036;-67
2022/07/25 06:04:07;;;;;;;14.25;4.55;;;;;;;;;;5022718;28;20451;-66
2022/07/25 06:06:33;;;;;;;14.95;5.05;;;;;;;;;;5009796;28;20481;-67
2022/07/25 06:08:59;;;;;;;13.88;4.60;;;;;;;;;;5005045;28;20040;-67
2022/07/25 06:11:29;;;;;;;17.20;4.70;;;;;;;;;;5027545;28;20547;-66
2022/07/25 06:13:55;;;;;;;9.80;4.70;;;;;;;;;;5025128;28;20060;-69
2022/07/25 06:16:22;;;;;;;16.73;4.88;;;;;;;;;;5027687;28;20033;-66
2022/07/25 06:18:48;;;;;;;18.52;5.20;;;;;;;;;;5011714;28;20033;-65
2022/07/25 06:21:14;;;;;;;18.42;5.25;;;;;;;;;;5004408;28;20503;-67
2022/07/25 06:23:40;;;;;;;17.65;4.88;;;;;;;;;;5028955;28;20314;-66
2022/07/25 06:26:10;;;;;;;24.33;5.88;;;;;;;;;;5025808;28;20040;-67
2022/07/25 06:28:37;;;;;;;35.38;6.60;;;;;;;;;;5008429;28;20660;-66
2022/07/25 06:31:03;;;;;;;41.05;6.60;;;;;;;;;;5025466;28;20036;-67
2022/07/25 06:33:29;;;;;;;43.35;7.55;;;;;;;;;;5027414;28;20137;-66
2022/07/25 06:35:55;;;;;;;28.73;6.10;;;;;;;;;;5024896;28;20587;-67
2022/07/25 06:38:21;;;;;;;35.88;6.65;;;;;;;;;;5025589;28;20095;-67
2022/07/25 06:40:47;;;;;;;25.70;5.68;;;;;;;;;;5006401;28;20191;-66
2022/07/25 06:43:13;;;;;;;27.15;5.75;;;;;;;;;;5005746;28;20049;-65
2022/07/25 06:45:41;;;;;;;20.55;4.80;;;;;;;;;;5026322;28;20040;-66
2022/07/25 06:48:07;;;;;;;23.33;5.10;;;;;;;;;;5022087;28;20036;-66
2022/07/25 06:50:34;;;;;;;23.20;4.60;;;;;;;;;;5023536;28;20163;-67
2022/07/25 06:53:00;;;;;;;14.02;4.70;;;;;;;;;;5023381;28;20542;-66
2022/07/25 06:55:26;;;;;;;14.05;4.75;;;;;;;;;;5010461;28;20246;-67
2022/07/25 06:57:52;;;;;;;15.73;4.45;;;;;;;;;;5026755;28;20643;-68
2022/07/25 07:00:18;;;;;;;14.02;4.30;;;;;;;;;;5032011;28;20055;-65
2022/07/25 07:02:48;;;;;;;9.75;3.90;;;;;;;;;;5027635;28;20308;-67
2022/07/25 07:05:14;;;;;;;9.60;3.70;;;;;;;;;;5009272;28;20052;-65
2022/07/25 07:07:40;;;;;;;13.07;3.53;;;;;;;;;;5013743;28;20136;-65
2022/07/25 07:10:07;;;;;;;8.38;3.28;;;;;;;;;;5027741;28;20400;-66
2022/07/25 07:12:33;;;;;;;8.10;3.63;;;;;;;;;;5029932;28;20041;-67
2022/07/25 07:14:59;;;;;;;10.13;3.40;;;;;;;;;;5025113;28;20075;-67
2022/07/25 07:17:25;;;;;;;9.68;3.47;;;;;;;;;;5028700;28;20096;-66
2022/07/25 07:19:51;;;;;;;8.18;3.30;;;;;;;;;;5025614;28;20028;-66
2022/07/25 07:22:17;;;;;;;7.72;3.35;;;;;;;;;;5029938;28;20349;-66
2022/07/25 07:24:43;;;;;;;12.10;3.40;;;;;;;;;;5030323;28;20055;-65
2022/07/25 07:27:09;;;;;;;10.10;3.35;;;;;;;;;;5028602;28;20474;-66
2022/07/25 07:29:36;;;;;;;9.55;3.08;;;;;;;;;;5034285;28;20396;-66
2022/07/25 07:32:02;;;;;;;8.40;3.53;;;;;;;;;;5023210;28;20416;-68
2022/07/25 07:34:28;;;;;;;9.90;3.50;;;;;;;;;;5030226;28;20573;-66
2022/07/25 07:36:54;;;;;;;9.00;3.22;;;;;;;;;;5025507;28;20060;-66
2022/07/25 07:39:20;;;;;;;8.07;3.33;;;;;;;;;;5026467;28;20060;-67
2022/07/25 07:41:46;;;;;;;9.60;3.22;;;;;;;;;;5012492;28;20139;-66
2022/07/25 07:44:12;;;;;;;9.23;3.50;;;;;;;;;;5026327;28;20100;-66
2022/07/25 07:46:38;;;;;;;9.65;3.35;;;;;;;;;;5029126;28;20148;-66
2022/07/25 07:49:04;;;;;;;10.85;3.38;;;;;;;;;;5024032;28;20408;-66
2022/07/25 07:51:30;;;;;;;8.60;3.42;;;;;;;;;;5027977;28;20040;-66
2022/07/25 07:56:41;;;;;;;11.07;3.60;;;;;;;;;;5029446;28;20530;-66
2022/07/25 07:59:07;;;;;;;10.23;3.50;;;;;;;;;;5024123;28;20485;-67
2022/07/25 08:01:34;;;;;;;8.38;3.13;;;;;;;;;;5012535;28;20546;-66
2022/07/25 08:04:00;;;;;;;8.07;3.55;;;;;;;;;;5015448;28;20040;-66
2022/07/25 08:06:27;;;;;;;9.48;3.80;;;;;;;;;;5026123;28;20040;-66
2022/07/25 08:08:53;;;;;;;8.43;3.65;;;;;;;;;;5025666;28;20043;-67
2022/07/25 08:11:19;;;;;;;8.20;3.70;;;;;;;;;;5028741;28;20615;-66
2022/07/25 08:13:46;;;;;;;8.43;3.33;;;;;;;;;;5026410;28;20025;-68
2022/07/25 08:16:12;;;;;;;9.80;3.70;;;;;;;;;;5014868;28;20119;-66
2022/07/25 08:18:39;;;;;;;9.00;3.45;;;;;;;;;;5027949;28;20496;-66
2022/07/25 08:21:06;;;;;;;9.25;3.28;;;;;;;;;;5025813;28;20020;-66
2022/07/25 08:23:34;;;;;;;11.20;3.20;;;;;;;;;;5027027;28;20032;-65
2022/07/25 08:26:01;;;;;;;11.65;3.83;;;;;;;;;;5023997;28;20064;-65
2022/07/25 08:28:27;;;;;;;8.57;3.60;;;;;;;;;;5028121;28;20917;-66
2022/07/25 08:30:53;;;;;;;10.10;3.58;;;;;;;;;;5024610;28;20107;-65
2022/07/25 08:33:20;;;;;;;9.27;3.50;;;;;;;;;;5029118;28;20105;-66
2022/07/25 08:35:53;;;;;;;8.00;3.55;;;;;;;;;;5011214;28;20524;-65
2022/07/25 08:38:20;;;;;;;8.20;3.38;;;;;;;;;;5028538;28;20032;-65
2022/07/25 08:40:47;;;;;;;8.32;3.45;;;;;;;;;;5008950;28;20170;-66
2022/07/25 08:43:13;;;;;;;8.07;3.40;;;;;;;;;;5026254;28;20040;-66
2022/07/25 08:45:47;;;;;;;7.90;3.08;;;;;;;;;;5029283;28;20107;-66
2022/07/25 08:48:14;;;;;;;9.45;3.17;;;;;;;;;;5027273;28;20036;-65
2022/07/25 08:50:40;;;;;;;9.23;3.78;;;;;;;;;;5023369;28;20966;-66
2022/07/25 08:53:06;;;;;;;8.88;3.30;;;;;;;;;;5025915;28;20545;-66
2022/07/25 08:55:32;;;;;;;7.63;3.17;;;;;;;;;;5029361;28;20547;-66
2022/07/25 08:57:59;;;;;;;8.10;3.40;;;;;;;;;;5025775;28;20817;-66
2022/07/25 09:00:27;;;;;;;10.40;3.13;;;;;;;;;;5029135;28;20682;-66
2022/07/25 09:02:59;;;;;;;9.52;3.83;;;;;;;;;;5025882;28;20033;-66
2022/07/25 09:05:26;;;;;;;8.80;3.42;;;;;;;;;;5029540;28;20149;-66
2022/07/25 09:07:53;;;;;;;8.43;3.03;;;;;;;;;;5028860;28;20153;-66
2022/07/25 09:10:21;;;;;;;8.52;3.05;;;;;;;;;;5027720;28;20039;-65
2022/07/25 09:12:56;;;;;;;8.57;3.17;;;;;;;;;;5029611;28;20041;-66
2022/07/25 09:15:32;;;;;;;10.75;3.58;;;;;;;;;;5027859;28;20029;-66
2022/07/25 09:18:06;;;;;;;8.57;3.40;;;;;;;;;;5025575;28;20032;-66
2022/07/25 09:20:47;;;;;;;11.95;3.63;;;;;;;;;;5028048;28;20096;-66
2022/07/25 09:23:15;;;;;;;9.52;3.58;;;;;;;;;;5023828;28;20029;-65
2022/07/25 09:25:41;;;;;;;10.00;3.72;;;;;;;;;;5028764;28;20032;-65
2022/07/25 09:28:12;;;;;;;8.68;3.50;;;;;;;;;;5023869;28;20556;-65
2022/07/25 09:30:38;;;;;;;8.75;3.40;;;;;;;;;;5026411;28;20037;-65
2022/07/25 09:33:04;;;;;;;8.60;3.28;;;;;;;;;;5025906;28;20036;-66
2022/07/25 09:35:37;;;;;;;8.65;2.97;;;;;;;;;;5027399;28;20142;-66
2022/07/25 09:38:15;;;;;;;7.85;3.20;;;;;;;;;;5021232;28;20033;-66
2022/07/25 09:40:41;;;;;;;7.07;3.20;;;;;;;;;;5026158;28;20504;-65
2022/07/25 09:43:08;;;;;;;7.60;3.28;;;;;;;;;;5024671;28;20037;-65
2022/07/25 09:45:34;;;;;;;10.15;3.15;;;;;;;;;;5028433;28;20571;-65
2022/07/25 09:48:01;;;;;;;10.60;3.65;;;;;;;;;;5018485;28;20594;-65
2022/07/25 09:50:28;;;;;;;7.13;3.20;;;;;;;;;;5026755;28;20053;-65
2022/07/25 09:52:56;;;;;;;8.05;3.45;;;;;;;;;;5007250;28;20039;-65
2022/07/25 09:55:23;;;;;;;7.85;3.20;;;;;;;;;;5026847;28;20108;-65
2022/07/25 09:57:52;;;;;;;8.88;3.30;;;;;;;;;;5015017;28;20657;-66
2022/07/25 10:00:22;;;;;;;7.80;3.00;;;;;;;;;;5026684;28;20040;-65
2022/07/25 10:02:50;;;;;;;7.72;3.40;;;;;;;;;;5017566;28;20028;-65
2022/07/25 10:05:20;;;;;;;7.43;3.20;;;;;;;;;;5025753;28;20151;-65
2022/07/25 10:07:47;;;;;;;7.35;3.13;;;;;;;;;;5013471;28;20440;-65
2022/07/25 10:10:21;;;;;;;10.00;3.42;;;;;;;;;;5025133;28;20161;-66
2022/07/25 10:12:57;;;;;;;6.63;2.85;;;;;;;;;;5027408;28;20136;-65
2022/07/25 10:15:23;;;;;;;8.40;2.95;;;;;;;;;;5025574;28;20037;-66
2022/07/25 10:18:01;;;;;;;8.25;3.20;;;;;;;;;;5025921;28;20495;-66
2022/07/25 10:20:28;;;;;;;8.13;3.20;;;;;;;;;;5025551;28;20040;-66
2022/07/25 10:22:54;;;;;;;7.72;3.15;;;;;;;;;;5024722;28;20155;-66
2022/07/25 10:25:20;;;;;;;7.45;3.05;;;;;;;;;;5007832;28;20059;-66
2022/07/25 10:27:51;;;;;;;8.07;3.05;;;;;;;;;;5027627;28;20036;-67
2022/07/25 10:30:28;;;;;;;8.95;3.38;;;;;;;;;;5028416;28;20044;-65
2022/07/25 10:33:05;;;;;;;6.70;2.67;;;;;;;;;;5008169;28;20039;-65
2022/07/25 10:35:31;;;;;;;7.20;3.10;;;;;;;;;;5023581;28;20061;-67
2022/07/25 10:37:58;;;;;;;7.10;2.80;;;;;;;;;;5024410;28;20144;-66
2022/07/25 10:40:38;;;;;;;9.10;2.78;;;;;;;;;;5024329;28;20474;-66
2022/07/25 10:43:08;;;;;;;6.63;2.83;;;;;;;;;;5006230;28;20423;-66
2022/07/25 10:45:40;;;;;;;7.35;2.90;;;;;;;;;;5026337;28;20716;-65
2022/07/25 10:48:07;;;;;;;9.68;2.75;;;;;;;;;;5005920;28;20092;-67
2022/07/25 10:50:33;;;;;;;6.55;2.83;;;;;;;;;;5026807;28;20090;-67
2022/07/25 10:52:59;;;;;;;7.65;2.60;;;;;;;;;;5022906;28;20044;-67
2022/07/25 10:55:27;;;;;;;6.43;2.50;;;;;;;;;;5027278;28;20041;-66
2022/07/25 10:58:05;;;;;;;7.55;2.90;;;;;;;;;;5004789;28;20037;-67
2022/07/25 11:00:32;;;;;;;10.68;2.83;;;;;;;;;;5026587;28;20029;-67
2022/07/25 11:02:58;;;;;;;6.25;2.47;;;;;;;;;;5003470;28;20029;-67
2022/07/25 11:05:24;;;;;;;5.60;2.58;;;;;;;;;;5026600;28;20029;-65
2022/07/25 11:07:51;;;;;;;6.78;2.65;;;;;;;;;;5003966;28;20369;-66
2022/07/25 11:10:24;;;;;;;8.35;2.70;;;;;;;;;;5021946;28;20480;-67
2022/07/25 11:12:51;;;;;;;6.88;2.40;;;;;;;;;;5021287;28;20103;-66
2022/07/25 11:15:20;;;;;;;5.35;2.35;;;;;;;;;;5019808;28;20033;-66
2022/07/25 11:17:51;;;;;;;7.55;2.50;;;;;;;;;;5018769;28;20669;-66
2022/07/25 11:20:18;;;;;;;9.50;2.50;;;;;;;;;;5021288;28;20447;-67
2022/07/25 11:22:51;;;;;;;7.88;2.47;;;;;;;;;;5019177;28;20206;-66
2022/07/25 11:25:20;;;;;;;6.70;2.15;;;;;;;;;;5020689;28;20433;-66
2022/07/25 11:27:49;;;;;;;7.95;2.08;;;;;;;;;;5004277;28;20336;-67
2022/07/25 11:30:18;;;;;;;6.68;2.20;;;;;;;;;;5022027;28;20388;-66
2022/07/25 11:32:53;;;;;;;6.28;2.50;;;;;;;;;;5006657;28;20021;-67
2022/07/25 11:35:24;;;;;;;10.65;2.53;;;;;;;;;;5024090;28;20180;-66
2022/07/25 11:37:51;;;;;;;9.55;2.30;;;;;;;;;;5022822;28;20045;-67
2022/07/25 11:40:17;;;;;;;9.30;2.30;;;;;;;;;;5020973;28;20036;-67
2022/07/25 11:42:51;;;;;;;7.47;2.67;;;;;;;;;;5026845;28;20451;-67
2022/07/25 11:45:27;;;;;;;8.60;2.78;;;;;;;;;;5027399;28;20389;-67
2022/07/25 11:48:03;;;;;;;8.60;2.72;;;;;;;;;;5004723;28;20072;-69
2022/07/25 11:50:30;;;;;;;8.02;2.60;;;;;;;;;;5019133;28;20067;-66
2022/07/25 11:53:08;;;;;;;6.75;2.20;;;;;;;;;;5025193;28;20656;-66
2022/07/25 11:55:36;;;;;;;7.45;2.15;;;;;;;;;;5026539;28;20172;-67
2022/07/25 11:58:03;;;;;;;6.70;2.40;;;;;;;;;;5024119;28;20044;-66
2022/07/25 12:00:30;;;;;;;7.68;2.50;;;;;;;;;;5027310;28;20037;-66
2022/07/25 12:03:07;;;;;;;7.95;2.40;;;;;;;;;;5029211;28;20290;-67
2022/07/25 12:05:33;;;;;;;7.20;2.38;;;;;;;;;;5026224;28;20055;-67
2022/07/25 12:08:07;;;;;;;10.35;2.30;;;;;;;;;;5028017;28;20079;-66
2022/07/25 12:10:34;;;;;;;9.93;2.53;;;;;;;;;;5027355;28;20786;-67
2022/07/25 12:13:02;;;;;;;6.60;2.13;;;;;;;;;;5019896;28;20363;-67
2022/07/25 12:15:39;;;;;;;9.05;2.80;;;;;;;;;;5027759;28;20408;-66
2022/07/25 12:18:07;;;;;;;7.65;2.65;;;;;;;;;;5028877;28;20136;-67
2022/07/25 12:20:37;;;;;;;8.50;2.60;;;;;;;;;;5027284;28;20043;-66
2022/07/25 12:23:07;;;;;;;7.63;2.70;;;;;;;;;;5026171;28;20032;-67
2022/07/25 12:25:35;;;;;;;9.13;2.63;;;;;;;;;;5027341;28;20040;-67
2022/07/25 12:28:01;;;;;;;7.75;2.50;;;;;;;;;;5018972;28;20033;-66
2022/07/25 12:30:28;;;;;;;8.48;2.67;;;;;;;;;;5027796;28;20029;-67
2022/07/25 12:32:55;;;;;;;7.78;2.70;;;;;;;;;;5025123;28;20044;-66
2022/07/25 12:35:22;;;;;;;8.07;2.40;;;;;;;;;;5028362;28;20111;-66
2022/07/25 12:37:48;;;;;;;6.38;2.47;;;;;;;;;;5027082;28;20493;-66
2022/07/25 12:40:15;;;;;;;9.77;2.60;;;;;;;;;;5020187;28;20029;-66
2022/07/25 12:42:41;;;;;;;8.82;2.63;;;;;;;;;;5027077;28;20706;-67
2022/07/25 12:45:08;;;;;;;9.57;2.45;;;;;;;;;;5020826;28;20029;-66
2022/07/25 12:47:34;;;;;;;11.02;2.67;;;;;;;;;;5022225;28;20711;-66
2022/07/25 12:50:01;;;;;;;8.48;2.80;;;;;;;;;;5020777;28;20822;-68
2022/07/25 12:52:27;;;;;;;6.72;2.60;;;;;;;;;;5022450;28;20040;-67
2022/07/25 12:54:53;;;;;;;7.80;2.65;;;;;;;;;;5021730;28;20040;-65
2022/07/25 12:57:22;;;;;;;7.05;2.30;;;;;;;;;;5024344;28;20036;-66
2022/07/25 12:59:48;;;;;;;9.10;2.45;;;;;;;;;;5014224;28;20040;-67
2022/07/25 13:02:14;;;;;;;6.97;2.60;;;;;;;;;;5024198;28;20021;-67
2022/07/25 13:04:40;;;;;;;9.85;2.47;;;;;;;;;;5025612;28;20056;-67
2022/07/25 13:07:07;;;;;;;6.68;2.25;;;;;;;;;;5024498;28;20115;-67
2022/07/25 13:09:33;;;;;;;6.82;2.10;;;;;;;;;;5025877;28;20473;-67
2022/07/25 13:11:59;;;;;;;6.60;2.28;;;;;;;;;;5007020;28;20098;-66
2022/07/25 13:14:25;;;;;;;6.75;2.20;;;;;;;;;;5028916;28;20040;-66
2022/07/25 13:16:52;;;;;;;8.00;2.50;;;;;;;;;;5026050;28;20036;-67
2022/07/25 13:19:18;;;;;;;5.72;2.13;;;;;;;;;;5027187;28;20112;-67
2022/07/25 13:21:44;;;;;;;8.80;2.30;;;;;;;;;;5027499;28;21837;-67
2022/07/25 13:24:10;;;;;;;7.45;2.17;;;;;;;;;;5024221;28;22081;-67
2022/07/25 13:26:37;;;;;;;6.85;2.40;;;;;;;;;;5027991;28;20044;-67
2022/07/25 13:29:07;;;;;;;8.10;2.50;;;;;;;;;;5025638;28;20033;-67
2022/07/25 13:31:38;;;;;;;8.45;2.65;;;;;;;;;;5027503;28;20378;-67
2022/07/25 13:34:04;;;;;;;6.68;2.35;;;;;;;;;;5025345;28;20098;-67
2022/07/25 13:36:31;;;;;;;7.40;2.38;;;;;;;;;;5008171;28;20037;-67
2022/07/25 13:38:57;;;;;;;8.27;2.42;;;;;;;;;;5019132;28;20590;-66
2022/07/25 13:41:23;;;;;;;7.05;2.13;;;;;;;;;;5010069;28;20033;-67
2022/07/25 13:43:49;;;;;;;6.57;2.58;;;;;;;;;;5028116;28;20567;-66
2022/07/25 13:46:16;;;;;;;6.45;2.40;;;;;;;;;;5028285;28;20017;-66
2022/07/25 13:48:42;;;;;;;8.13;2.50;;;;;;;;;;5027599;28;20048;-68
2022/07/25 13:51:08;;;;;;;8.98;2.60;;;;;;;;;;5022784;28;20451;-67
2022/07/25 13:53:34;;;;;;;7.80;2.58;;;;;;;;;;5028740;28;20111;-66
2022/07/25 13:56:00;;;;;;;8.95;2.53;;;;;;;;;;5024956;28;20032;-66
2022/07/25 13:58:26;;;;;;;7.93;2.50;;;;;;;;;;5031909;28;20044;-65
2022/07/25 14:00:53;;;;;;;5.88;2.25;;;;;;;;;;5024000;28;20464;-66
2022/07/25 14:03:19;;;;;;;8.10;2.50;;;;;;;;;;5026617;28;20039;-66
2022/07/25 14:05:45;;;;;;;9.07;2.42;;;;;;;;;;5025359;28;20051;-67
2022/07/25 14:08:11;;;;;;;8.85;2.58;;;;;;;;;;5022310;28;20040;-67
2022/07/25 14:10:38;;;;;;;7.93;2.47;;;;;;;;;;5027685;28;20045;-67
2022/07/25 14:13:04;;;;;;;6.60;2.50;;;;;;;;;;5024755;28;20500;-66
2022/07/25 14:15:30;;;;;;;8.20;2.38;;;;;;;;;;5026019;28;20712;-67
2022/07/25 14:17:56;;;;;;;11.35;2.60;;;;;;;;;;5024411;28;20623;-66
2022/07/25 14:20:23;;;;;;;8.25;2.42;;;;;;;;;;5024451;28;20063;-66
2022/07/25 14:22:49;;;;;;;9.15;2.45;;;;;;;;;;5027008;28;20052;-66
2022/07/25 14:25:15;;;;;;;8.98;2.70;;;;;;;;;;5024701;28;20123;-66
2022/07/25 14:27:41;;;;;;;9.30;2.42;;;;;;;;;;5027895;28;20041;-67
2022/07/25 14:30:08;;;;;;;10.40;2.53;;;;;;;;;;5006323;28;20136;-66
2022/07/25 14:32:34;;;;;;;9.77;2.85;;;;;;;;;;5025422;28;20315;-67
2022/07/25 14:35:01;;;;;;;8.85;2.58;;;;;;;;;;5004884;28;20078;-68
2022/07/25 14:37:30;;;;;;;9.30;2.38;;;;;;;;;;5006154;28;20597;-66
2022/07/25 14:39:56;;;;;;;8.40;2.30;;;;;;;;;;5022835;28;20441;-68
2022/07/25 14:42:22;;;;;;;9.45;2.58;;;;;;;;;;5026632;28;20103;-68